Terminal Aerodrome Forecast
Issued by NWS

Home | Current Version | Previous Version | Text Only | Print | Product List | Glossary On
Versions: 1 2 3 4 5 6 7 8 9 10 11 12 13 14 15 16 17 18 19 20 21
000
FTUS46 KPDT 010407 AAC
TAFRDM
TAF AMD
KRDM 010407Z 0104/0124 32008G15KT P6SM FEW070 SCT250
     FM011200 VRB05KT P6SM BKN080
     FM011900 32010G18KT P6SM SCT250
     FM012200 33015G23KT P6SM SCT130 BKN250=

USA.gov is the U.S. government's official web portal to all federal, state and local government web resources and services.